Terminal Aerodrome Forecast
Issued by NWS

Current Version | Previous Version | Text Only | Print | Product List | Glossary Off
Versions: 1 2 3 4 5 6 7 8 9 10 11 12 13 14 15 16 17 18 19 20

620
FTUS41 KILN 162201 AAA
TAFLCK
TAF AMD
KLCK 162201Z 1622/1718 34012KT P6SM SCT025 BKN035
      TEMPO 1623/1702 BKN025
     FM170300 35004KT P6SM BKN035
     FM171400 17004KT P6SM VCSH SCT050 OVC090=

USA.gov is the U.S. government's official web portal to all federal, state and local government web resources and services.